createdAt,value
2023-03-02T00:00:48.515Z,-6.15
2023-03-02T00:03:43.419Z,-6.23
2023-03-02T00:08:01.930Z,-6.01
2023-03-02T00:10:16.940Z,-6.25
2023-03-02T00:13:09.714Z,-6.54
2023-03-02T00:15:52.379Z,-6.57
2023-03-02T00:21:28.276Z,-6.38
2023-03-02T00:24:38.015Z,-6.65
2023-03-02T00:27:09.971Z,-6.46
2023-03-02T00:30:44.989Z,-6.62
2023-03-02T00:35:52.137Z,-6.64
2023-03-02T00:38:26.919Z,-6.59
2023-03-02T00:41:30.312Z,-6.41
2023-03-02T00:44:02.506Z,-6.70
2023-03-02T00:46:51.271Z,-6.44
2023-03-02T00:49:29.323Z,-6.53
2023-03-02T00:52:11.009Z,-6.13
2023-03-02T00:55:10.314Z,-6.27
2023-03-02T00:57:43.645Z,-6.35
2023-03-02T01:00:23.431Z,-6.27
2023-03-02T01:03:43.259Z,-6.19
2023-03-02T01:05:52.493Z,-6.49
2023-03-02T01:08:19.944Z,-6.29
2023-03-02T01:10:54.115Z,-6.22
2023-03-02T01:14:08.788Z,-6.28
2023-03-02T01:18:04.923Z,-6.36
2023-03-02T01:20:07.218Z,-6.21
2023-03-02T01:22:42.637Z,-6.27
2023-03-02T01:25:31.495Z,-6.27
2023-03-02T01:28:40.001Z,-6.14
2023-03-02T01:34:54.748Z,-6.42
2023-03-02T01:37:47.817Z,-5.97
2023-03-02T01:40:35.538Z,-6.20
2023-03-02T01:43:54.494Z,-6.15
2023-03-02T01:46:39.878Z,-5.98
2023-03-02T01:49:35.328Z,-6.16
2023-03-02T01:52:52.647Z,-6.50
2023-03-02T01:55:36.566Z,-6.41
2023-03-02T01:58:15.682Z,-6.26
2023-03-02T02:04:05.212Z,-6.28
2023-03-02T02:10:13.355Z,-6.30
2023-03-02T02:24:39.200Z,-5.83
2023-03-02T02:27:17.322Z,-5.88
2023-03-02T02:30:05.192Z,-5.83
2023-03-02T02:32:38.154Z,-6.08
2023-03-02T02:39:59.340Z,-6.34
2023-03-02T02:42:42.234Z,-6.03
2023-03-02T02:45:41.740Z,-6.23
2023-03-02T02:52:11.914Z,-6.05
2023-03-02T02:56:35.665Z,-6.22
2023-03-02T02:58:48.326Z,-6.05
2023-03-02T03:02:37.274Z,-5.95
2023-03-02T03:07:34.514Z,-6.30
2023-03-02T03:10:51.417Z,-6.12
2023-03-02T03:14:02.264Z,-5.96
2023-03-02T03:23:11.119Z,-5.92
2023-03-02T03:32:09.839Z,-5.99
2023-03-02T03:34:59.578Z,-5.86
2023-03-02T03:38:03.473Z,-6.02
2023-03-02T03:43:45.160Z,-5.92
2023-03-02T03:49:06.521Z,-5.80
2023-03-02T03:52:51.760Z,-5.84
2023-03-02T03:55:04.040Z,-5.89
2023-03-02T03:58:24.620Z,-6.05
2023-03-02T04:00:47.884Z,-6.19
2023-03-02T04:06:42.962Z,-5.66
2023-03-02T04:13:10.978Z,-6.11
2023-03-02T04:19:13.369Z,-5.98
2023-03-02T04:29:02.142Z,-5.53
2023-03-02T04:32:12.034Z,-5.89
2023-03-02T04:51:05.737Z,-6.26
2023-03-02T04:58:37.577Z,-6.05
2023-03-02T05:01:55.580Z,-5.57
2023-03-02T05:11:38.090Z,-5.58
2023-03-02T10:24:30.913Z,0.95
2023-03-02T10:49:07.526Z,5.20
2023-03-02T10:54:38.810Z,5.71
2023-03-02T11:41:47.523Z,-0.23
2023-03-02T14:24:31.161Z,-4.20
2023-03-02T14:27:04.535Z,-4.41
2023-03-02T14:36:55.082Z,-4.40
2023-03-02T14:43:06.860Z,-4.56
2023-03-02T14:52:56.389Z,-4.62
2023-03-02T15:00:53.556Z,-4.85
2023-03-02T15:03:26.638Z,-4.88
2023-03-02T15:24:42.030Z,-4.98
2023-03-02T15:43:29.541Z,-5.19
2023-03-02T15:45:57.233Z,-4.99
2023-03-02T15:48:25.319Z,-4.98
2023-03-02T15:51:11.552Z,-5.09
2023-03-02T15:53:39.192Z,-5.14
2023-03-02T15:56:14.227Z,-5.21
2023-03-02T15:58:45.295Z,-5.20
2023-03-02T16:01:13.244Z,-5.19
2023-03-02T16:03:40.884Z,-5.15
2023-03-02T16:06:10.090Z,-5.30
2023-03-02T16:08:38.037Z,-5.56
2023-03-02T16:19:46.738Z,-5.68
2023-03-02T17:01:43.561Z,-6.12
2023-03-02T17:13:28.709Z,-6.30
2023-03-02T17:16:07.186Z,-6.26
2023-03-02T17:18:48.608Z,-6.12
2023-03-02T19:26:48.952Z,-5.57
2023-03-02T19:29:20.676Z,-5.63
2023-03-02T19:42:01.251Z,-5.57
2023-03-02T22:09:13.316Z,-5.31
2023-03-02T22:11:41.683Z,-5.41
2023-03-02T22:14:18.884Z,-5.53
2023-03-02T22:16:50.120Z,-5.54
2023-03-02T22:19:43.709Z,-5.66
2023-03-02T22:22:32.676Z,-5.81
2023-03-02T22:25:00.579Z,-5.84
2023-03-02T22:27:33.104Z,-5.92
2023-03-02T22:30:03.269Z,-6.01
2023-03-02T22:32:39.827Z,-6.10
2023-03-02T22:35:27.667Z,-5.99
2023-03-02T22:38:11.404Z,-5.74
2023-03-02T22:44:14.098Z,-5.51
2023-03-02T22:46:45.386Z,-5.55
2023-03-02T22:52:24.955Z,-5.29
2023-03-02T22:54:52.867Z,-5.48
2023-03-02T22:57:32.310Z,-5.43
2023-03-02T23:00:12.646Z,-5.24
2023-03-02T23:02:43.942Z,-5.38
2023-03-02T23:05:37.844Z,-5.53
2023-03-02T23:08:20.859Z,-5.31
2023-03-02T23:10:50.167Z,-5.32
2023-03-02T23:13:21.046Z,-5.35
2023-03-02T23:15:50.870Z,-5.31
2023-03-02T23:18:30.392Z,-5.35
2023-03-02T23:20:58.316Z,-5.15
2023-03-02T23:23:27.996Z,-5.28
2023-03-02T23:26:02.021Z,-5.33
2023-03-02T23:28:29.694Z,-5.36
2023-03-02T23:30:57.248Z,-5.54
2023-03-02T23:33:24.988Z,-5.53
2023-03-02T23:35:53.269Z,-5.53
2023-03-02T23:38:27.717Z,-5.55
2023-03-02T23:40:55.831Z,-5.47
2023-03-02T23:43:23.713Z,-5.57
2023-03-02T23:45:51.529Z,-5.45
2023-03-02T23:48:19.800Z,-5.45
2023-03-02T23:50:47.317Z,-5.58
2023-03-02T23:53:15.989Z,-5.44
2023-03-02T23:55:48.638Z,-5.49
2023-03-02T23:58:33.990Z,-5.49
